sensor_id;sensor_type;location;lat;lon;timestamp;pressure;altitude;pressure_sealevel;temperature;humidity
33554;BME280;19885;42.208;24.952;2023-06-01T00:01:39;99919.09;;;19.22;98.77
33554;BME280;19885;42.208;24.952;2023-06-01T00:04:05;99923.44;;;19.24;98.41
33554;BME280;19885;42.208;24.952;2023-06-01T00:06:32;99919.09;;;19.22;98.14
33554;BME280;19885;42.208;24.952;2023-06-01T00:08:57;99917.22;;;19.27;97.38
33554;BME280;19885;42.208;24.952;2023-06-01T00:11:23;99926.00;;;19.28;98.22
33554;BME280;19885;42.208;24.952;2023-06-01T00:13:49;99932.75;;;19.07;98.80
33554;BME280;19885;42.208;24.952;2023-06-01T00:16:15;99932.88;;;18.69;100.00
33554;BME280;19885;42.208;24.952;2023-06-01T00:18:41;99928.41;;;19.04;98.67
33554;BME280;19885;42.208;24.952;2023-06-01T00:21:07;99927.53;;;19.04;98.71
33554;BME280;19885;42.208;24.952;2023-06-01T00:23:32;99924.13;;;18.67;98.24
33554;BME280;19885;42.208;24.952;2023-06-01T00:26:00;99931.47;;;18.54;98.73
33554;BME280;19885;42.208;24.952;2023-06-01T00:28:25;99924.59;;;18.48;99.39
33554;BME280;19885;42.208;24.952;2023-06-01T00:30:51;99927.50;;;17.98;100.00
33554;BME280;19885;42.208;24.952;2023-06-01T00:33:18;99923.59;;;17.32;100.00
33554;BME280;19885;42.208;24.952;2023-06-01T00:35:43;99923.25;;;17.04;100.00
33554;BME280;19885;42.208;24.952;2023-06-01T00:38:08;99926.81;;;17.89;100.00
33554;BME280;19885;42.208;24.952;2023-06-01T00:40:34;99917.00;;;17.95;100.00
33554;BME280;19885;42.208;24.952;2023-06-01T00:42:59;99922.41;;;17.89;100.00
33554;BME280;19885;42.208;24.952;2023-06-01T00:45:25;99927.13;;;18.15;100.00
33554;BME280;19885;42.208;24.952;2023-06-01T00:47:51;99920.75;;;18.23;100.00
33554;BME280;19885;42.208;24.952;2023-06-01T00:50:16;99919.56;;;18.36;99.53
33554;BME280;19885;42.208;24.952;2023-06-01T00:52:41;99921.22;;;18.40;99.83
33554;BME280;19885;42.208;24.952;2023-06-01T00:55:07;99923.63;;;18.51;98.85
33554;BME280;19885;42.208;24.952;2023-06-01T00:57:34;99922.59;;;18.57;97.88
33554;BME280;19885;42.208;24.952;2023-06-01T00:59:59;99927.28;;;18.44;99.79
33554;BME280;19885;42.208;24.952;2023-06-01T01:02:26;99930.59;;;18.53;98.22
33554;BME280;19885;42.208;24.952;2023-06-01T01:04:51;99936.63;;;18.59;97.59
33554;BME280;19885;42.208;24.952;2023-06-01T01:09:49;99940.47;;;18.45;99.47
33554;BME280;19885;42.208;24.952;2023-06-01T01:12:31;99945.59;;;18.15;100.00
33554;BME280;19885;42.208;24.952;2023-06-01T01:17:28;99939.78;;;18.37;100.00
33554;BME280;19885;42.208;24.952;2023-06-01T01:20:02;99944.91;;;18.43;100.00
33554;BME280;19885;42.208;24.952;2023-06-01T01:25:21;99945.91;;;18.38;100.00
33554;BME280;19885;42.208;24.952;2023-06-01T01:30:33;99937.03;;;18.40;97.63
33554;BME280;19885;42.208;24.952;2023-06-01T01:33:01;99938.19;;;18.29;97.78
33554;BME280;19885;42.208;24.952;2023-06-01T01:35:29;99942.75;;;18.22;97.79
33554;BME280;19885;42.208;24.952;2023-06-01T01:37:55;99945.53;;;18.16;98.74
33554;BME280;19885;42.208;24.952;2023-06-01T01:40:21;99949.13;;;18.14;100.00
33554;BME280;19885;42.208;24.952;2023-06-01T01:42:47;99941.56;;;17.97;100.00
33554;BME280;19885;42.208;24.952;2023-06-01T01:45:13;99938.69;;;17.69;100.00
33554;BME280;19885;42.208;24.952;2023-06-01T01:47:54;99931.88;;;17.12;100.00
33554;BME280;19885;42.208;24.952;2023-06-01T01:50:24;99936.41;;;17.50;100.00
33554;BME280;19885;42.208;24.952;2023-06-01T01:52:51;99938.59;;;17.74;100.00
33554;BME280;19885;42.208;24.952;2023-06-01T01:55:17;99942.16;;;17.70;100.00
33554;BME280;19885;42.208;24.952;2023-06-01T01:57:43;99946.50;;;17.74;100.00
33554;BME280;19885;42.208;24.952;2023-06-01T02:00:09;99945.44;;;17.81;100.00
33554;BME280;19885;42.208;24.952;2023-06-01T02:02:36;99953.97;;;17.49;100.00
33554;BME280;19885;42.208;24.952;2023-06-01T02:05:02;99951.88;;;17.68;100.00
33554;BME280;19885;42.208;24.952;2023-06-01T02:07:27;99956.53;;;17.54;100.00
33554;BME280;19885;42.208;24.952;2023-06-01T02:09:53;99956.06;;;17.78;100.00
33554;BME280;19885;42.208;24.952;2023-06-01T02:12:18;99949.66;;;17.88;100.00
33554;BME280;19885;42.208;24.952;2023-06-01T02:14:43;99954.94;;;17.90;100.00
33554;BME280;19885;42.208;24.952;2023-06-01T02:17:09;99957.38;;;17.97;99.77
33554;BME280;19885;42.208;24.952;2023-06-01T02:19:34;99960.75;;;18.05;98.68
33554;BME280;19885;42.208;24.952;2023-06-01T02:22:00;99960.66;;;18.08;98.45
33554;BME280;19885;42.208;24.952;2023-06-01T02:24:25;99966.75;;;18.12;97.98
33554;BME280;19885;42.208;24.952;2023-06-01T02:26:51;99959.88;;;18.05;99.13
33554;BME280;19885;42.208;24.952;2023-06-01T02:29:21;99967.72;;;18.06;98.27
33554;BME280;19885;42.208;24.952;2023-06-01T02:31:50;99960.06;;;17.96;100.00
33554;BME280;19885;42.208;24.952;2023-06-01T02:34:18;99970.66;;;17.94;100.00
33554;BME280;19885;42.208;24.952;2023-06-01T02:36:44;99965.47;;;17.90;100.00
33554;BME280;19885;42.208;24.952;2023-06-01T02:39:09;99962.66;;;17.97;99.31
33554;BME280;19885;42.208;24.952;2023-06-01T02:41:35;99963.44;;;18.02;98.39
33554;BME280;19885;42.208;24.952;2023-06-01T02:44:00;99968.75;;;18.01;98.54
33554;BME280;19885;42.208;24.952;2023-06-01T02:46:27;99959.09;;;18.01;98.12
33554;BME280;19885;42.208;24.952;2023-06-01T02:48:52;99968.28;;;17.82;100.00
33554;BME280;19885;42.208;24.952;2023-06-01T02:51:18;99960.41;;;17.79;100.00
33554;BME280;19885;42.208;24.952;2023-06-01T02:53:46;99971.31;;;17.62;100.00
33554;BME280;19885;42.208;24.952;2023-06-01T02:56:12;99968.91;;;17.50;100.00
33554;BME280;19885;42.208;24.952;2023-06-01T02:58:37;99969.66;;;17.57;100.00
33554;BME280;19885;42.208;24.952;2023-06-01T03:01:02;99971.84;;;17.35;100.00
33554;BME280;19885;42.208;24.952;2023-06-01T03:03:28;99975.03;;;17.49;100.00
33554;BME280;19885;42.208;24.952;2023-06-01T03:05:53;99970.78;;;17.44;100.00
33554;BME280;19885;42.208;24.952;2023-06-01T03:08:19;99979.38;;;17.55;100.00
33554;BME280;19885;42.208;24.952;2023-06-01T03:10:44;99973.22;;;17.56;100.00
33554;BME280;19885;42.208;24.952;2023-06-01T03:13:10;99972.13;;;17.66;100.00
33554;BME280;19885;42.208;24.952;2023-06-01T03:15:35;99976.50;;;17.67;100.00
33554;BME280;19885;42.208;24.952;2023-06-01T03:18:06;99972.81;;;17.75;100.00
33554;BME280;19885;42.208;24.952;2023-06-01T03:20:33;99973.53;;;17.82;98.79
33554;BME280;19885;42.208;24.952;2023-06-01T03:22:58;99980.47;;;17.86;98.39
33554;BME280;19885;42.208;24.952;2023-06-01T03:25:23;99984.97;;;17.81;100.00
33554;BME280;19885;42.208;24.952;2023-06-01T03:27:50;99984.22;;;17.76;100.00
33554;BME280;19885;42.208;24.952;2023-06-01T03:30:15;99984.34;;;17.70;100.00
33554;BME280;19885;42.208;24.952;2023-06-01T03:32:40;99986.31;;;17.59;100.00
33554;BME280;19885;42.208;24.952;2023-06-01T03:35:10;99991.53;;;17.62;100.00
33554;BME280;19885;42.208;24.952;2023-06-01T03:37:35;99980.25;;;17.55;100.00
33554;BME280;19885;42.208;24.952;2023-06-01T03:40:04;99975.56;;;17.24;100.00
33554;BME280;19885;42.208;24.952;2023-06-01T03:42:48;99976.06;;;16.40;100.00
33554;BME280;19885;42.208;24.952;2023-06-01T03:45:14;99976.97;;;16.39;100.00
33554;BME280;19885;42.208;24.952;2023-06-01T03:47:40;99974.03;;;16.60;100.00
33554;BME280;19885;42.208;24.952;2023-06-01T03:50:06;99980.09;;;16.06;100.00
33554;BME280;19885;42.208;24.952;2023-06-01T03:52:33;99981.94;;;16.60;100.00
33554;BME280;19885;42.208;24.952;2023-06-01T03:54:59;99985.19;;;16.76;100.00
33554;BME280;19885;42.208;24.952;2023-06-01T03:57:29;99982.75;;;17.14;100.00
33554;BME280;19885;42.208;24.952;2023-06-01T03:59:54;99989.78;;;17.13;100.00
33554;BME280;19885;42.208;24.952;2023-06-01T04:02:20;99986.94;;;17.26;100.00
33554;BME280;19885;42.208;24.952;2023-06-01T04:04:47;99991.38;;;17.24;100.00
33554;BME280;19885;42.208;24.952;2023-06-01T04:07:12;99996.38;;;17.36;100.00
33554;BME280;19885;42.208;24.952;2023-06-01T04:09:47;100007.53;;;17.53;100.00
33554;BME280;19885;42.208;24.952;2023-06-01T04:12:13;100006.31;;;17.70;100.00
33554;BME280;19885;42.208;24.952;2023-06-01T04:14:38;100007.00;;;17.80;100.00
33554;BME280;19885;42.208;24.952;2023-06-01T04:17:04;100005.94;;;17.89;100.00
33554;BME280;19885;42.208;24.952;2023-06-01T04:19:31;99995.91;;;18.04;100.00
33554;BME280;19885;42.208;24.952;2023-06-01T04:21:59;99999.38;;;18.06;100.00
33554;BME280;19885;42.208;24.952;2023-06-01T04:24:24;100002.59;;;18.20;100.00
33554;BME280;19885;42.208;24.952;2023-06-01T04:26:49;100005.13;;;18.25;100.00
33554;BME280;19885;42.208;24.952;2023-06-01T04:29:18;100006.16;;;18.18;100.00
33554;BME280;19885;42.208;24.952;2023-06-01T04:31:47;100015.69;;;18.25;100.00
33554;BME280;19885;42.208;24.952;2023-06-01T04:34:15;100012.84;;;18.34;100.00
33554;BME280;19885;42.208;24.952;2023-06-01T04:36:40;100010.97;;;18.39;100.00
33554;BME280;19885;42.208;24.952;2023-06-01T04:39:06;100018.78;;;18.46;100.00
33554;BME280;19885;42.208;24.952;2023-06-01T04:41:32;100016.78;;;18.16;100.00
33554;BME280;19885;42.208;24.952;2023-06-01T04:43:57;100024.72;;;18.55;100.00
33554;BME280;19885;42.208;24.952;2023-06-01T04:46:23;100020.16;;;18.61;100.00
33554;BME280;19885;42.208;24.952;2023-06-01T04:48:50;100022.84;;;18.60;100.00
33554;BME280;19885;42.208;24.952;2023-06-01T04:51:20;100015.53;;;18.71;100.00
33554;BME280;19885;42.208;24.952;2023-06-01T04:53:50;100011.69;;;18.84;100.00
33554;BME280;19885;42.208;24.952;2023-06-01T04:56:23;100017.06;;;18.81;100.00
33554;BME280;19885;42.208;24.952;2023-06-01T04:58:57;100019.50;;;18.90;100.00
33554;BME280;19885;42.208;24.952;2023-06-01T05:01:28;100017.19;;;18.76;100.00
33554;BME280;19885;42.208;24.952;2023-06-01T05:03:55;100018.56;;;18.91;100.00
33554;BME280;19885;42.208;24.952;2023-06-01T05:06:25;100022.56;;;19.07;100.00
33554;BME280;19885;42.208;24.952;2023-06-01T05:08:51;100025.56;;;18.93;100.00
33554;BME280;19885;42.208;24.952;2023-06-01T05:11:16;100018.84;;;18.79;100.00
33554;BME280;19885;42.208;24.952;2023-06-01T05:13:41;100021.91;;;18.99;100.00
33554;BME280;19885;42.208;24.952;2023-06-01T05:16:09;100024.72;;;18.55;100.00
33554;BME280;19885;42.208;24.952;2023-06-01T05:18:35;100020.44;;;18.49;100.00
33554;BME280;19885;42.208;24.952;2023-06-01T05:21:01;100018.41;;;18.97;100.00
33554;BME280;19885;42.208;24.952;2023-06-01T05:23:26;100016.31;;;18.37;100.00
33554;BME280;19885;42.208;24.952;2023-06-01T05:25:52;100017.06;;;18.81;100.00
33554;BME280;19885;42.208;24.952;2023-06-01T05:28:18;100018.63;;;18.52;100.00
33554;BME280;19885;42.208;24.952;2023-06-01T05:30:45;100020.59;;;18.41;100.00
33554;BME280;19885;42.208;24.952;2023-06-01T05:33:10;100022.09;;;18.13;100.00
33554;BME280;19885;42.208;24.952;2023-06-01T05:35:36;100020.81;;;18.32;100.00
33554;BME280;19885;42.208;24.952;2023-06-01T05:38:04;100019.72;;;18.81;100.00
33554;BME280;19885;42.208;24.952;2023-06-01T05:40:30;100020.16;;;18.98;100.00
33554;BME280;19885;42.208;24.952;2023-06-01T05:42:55;100021.59;;;18.74;100.00
33554;BME280;19885;42.208;24.952;2023-06-01T05:45:20;100025.28;;;18.69;100.00
33554;BME280;19885;42.208;24.952;2023-06-01T05:47:48;100024.13;;;18.79;100.00
33554;BME280;19885;42.208;24.952;2023-06-01T05:50:16;100027.50;;;19.20;100.00
33554;BME280;19885;42.208;24.952;2023-06-01T05:52:41;100025.97;;;19.12;100.00
33554;BME280;19885;42.208;24.952;2023-06-01T05:55:07;100023.09;;;19.19;100.00
33554;BME280;19885;42.208;24.952;2023-06-01T05:57:33;100015.69;;;19.67;100.00
33554;BME280;19885;42.208;24.952;2023-06-01T05:59:58;100020.84;;;19.72;100.00
33554;BME280;19885;42.208;24.952;2023-06-01T06:02:26;100015.13;;;19.56;100.00
33554;BME280;19885;42.208;24.952;2023-06-01T06:04:54;100016.97;;;19.85;100.00
33554;BME280;19885;42.208;24.952;2023-06-01T06:07:20;100022.13;;;20.19;96.47
33554;BME280;19885;42.208;24.952;2023-06-01T06:09:45;100020.31;;;20.21;98.14
33554;BME280;19885;42.208;24.952;2023-06-01T06:12:10;100021.41;;;20.43;96.02
33554;BME280;19885;42.208;24.952;2023-06-01T06:14:38;100024.94;;;20.13;95.02
33554;BME280;19885;42.208;24.952;2023-06-01T06:17:06;100017.47;;;19.98;97.69
33554;BME280;19885;42.208;24.952;2023-06-01T06:19:32;100011.31;;;20.28;94.01
33554;BME280;19885;42.208;24.952;2023-06-01T06:21:57;100014.34;;;20.13;95.83
33554;BME280;19885;42.208;24.952;2023-06-01T06:24:22;100019.75;;;20.10;96.52
33554;BME280;19885;42.208;24.952;2023-06-01T06:26:47;100012.91;;;20.03;97.07
33554;BME280;19885;42.208;24.952;2023-06-01T06:29:13;100019.28;;;19.96;97.87
33554;BME280;19885;42.208;24.952;2023-06-01T06:31:39;100005.97;;;19.99;97.86
33554;BME280;19885;42.208;24.952;2023-06-01T06:34:04;100010.81;;;20.14;98.06
33554;BME280;19885;42.208;24.952;2023-06-01T06:36:30;100013.03;;;20.29;99.36
33554;BME280;19885;42.208;24.952;2023-06-01T06:38:55;100010.47;;;20.55;96.13
33554;BME280;19885;42.208;24.952;2023-06-01T06:41:27;100008.84;;;20.49;96.72
33554;BME280;19885;42.208;24.952;2023-06-01T06:43:52;100012.84;;;20.35;97.57
33554;BME280;19885;42.208;24.952;2023-06-01T06:46:20;100016.34;;;20.35;99.24
33554;BME280;19885;42.208;24.952;2023-06-01T06:48:46;100015.50;;;20.35;97.76
33554;BME280;19885;42.208;24.952;2023-06-01T06:51:11;100012.72;;;20.67;98.52
33554;BME280;19885;42.208;24.952;2023-06-01T06:53:36;100014.97;;;20.79;97.21
33554;BME280;19885;42.208;24.952;2023-06-01T06:56:04;100015.75;;;20.83;91.97
33554;BME280;19885;42.208;24.952;2023-06-01T06:58:33;100009.88;;;20.99;94.76
33554;BME280;19885;42.208;24.952;2023-06-01T07:01:00;100012.16;;;21.11;94.91
33554;BME280;19885;42.208;24.952;2023-06-01T07:03:30;100015.03;;;21.04;93.16
33554;BME280;19885;42.208;24.952;2023-06-01T07:05:56;100011.81;;;20.94;90.34
33554;BME280;19885;42.208;24.952;2023-06-01T07:08:21;100015.03;;;21.04;89.87
33554;BME280;19885;42.208;24.952;2023-06-01T07:10:46;100010.00;;;21.22;86.56
33554;BME280;19885;42.208;24.952;2023-06-01T07:13:12;100009.28;;;21.17;91.04
33554;BME280;19885;42.208;24.952;2023-06-01T07:15:37;100006.63;;;21.44;89.65
33554;BME280;19885;42.208;24.952;2023-06-01T07:18:02;100008.75;;;21.82;86.34
33554;BME280;19885;42.208;24.952;2023-06-01T07:20:27;100005.72;;;21.68;85.42
33554;BME280;19885;42.208;24.952;2023-06-01T07:22:53;100012.31;;;21.58;84.79
33554;BME280;19885;42.208;24.952;2023-06-01T07:25:18;100012.50;;;21.52;89.50
33554;BME280;19885;42.208;24.952;2023-06-01T07:27:43;100012.63;;;21.49;85.16
33554;BME280;19885;42.208;24.952;2023-06-01T07:30:09;100006.69;;;21.90;84.98
33554;BME280;19885;42.208;24.952;2023-06-01T07:32:35;100011.22;;;22.11;83.04
33554;BME280;19885;42.208;24.952;2023-06-01T07:35:00;100009.59;;;22.30;86.62
33554;BME280;19885;42.208;24.952;2023-06-01T07:37:26;100013.13;;;22.52;87.07
33554;BME280;19885;42.208;24.952;2023-06-01T07:39:54;100001.34;;;22.15;82.83
33554;BME280;19885;42.208;24.952;2023-06-01T07:42:20;100001.63;;;22.07;84.13
33554;BME280;19885;42.208;24.952;2023-06-01T07:44:46;99998.63;;;22.16;82.86
33554;BME280;19885;42.208;24.952;2023-06-01T07:47:11;99993.34;;;22.61;84.26
33554;BME280;19885;42.208;24.952;2023-06-01T07:49:37;99996.53;;;22.24;85.40
33554;BME280;19885;42.208;24.952;2023-06-01T07:52:02;99992.25;;;22.43;81.61
33554;BME280;19885;42.208;24.952;2023-06-01T07:54:31;99996.31;;;22.30;80.05
33554;BME280;19885;42.208;24.952;2023-06-01T07:56:56;99998.38;;;22.45;82.98
33554;BME280;19885;42.208;24.952;2023-06-01T07:59:25;99989.44;;;22.69;77.63
33554;BME280;19885;42.208;24.952;2023-06-01T08:01:50;99991.72;;;23.00;78.44
33554;BME280;19885;42.208;24.952;2023-06-01T08:04:21;99991.25;;;23.11;80.25
33554;BME280;19885;42.208;24.952;2023-06-01T08:06:46;99983.69;;;23.42;78.16
33554;BME280;19885;42.208;24.952;2023-06-01T08:09:12;99983.84;;;23.39;81.45
33554;BME280;19885;42.208;24.952;2023-06-01T08:11:37;99985.25;;;23.06;80.22
33554;BME280;19885;42.208;24.952;2023-06-01T08:16:28;99986.59;;;23.16;75.82
33554;BME280;19885;42.208;24.952;2023-06-01T08:18:56;99990.63;;;22.84;77.13
33554;BME280;19885;42.208;24.952;2023-06-01T08:21:24;99982.34;;;22.92;78.47
33554;BME280;19885;42.208;24.952;2023-06-01T08:23:50;99977.34;;;23.24;79.51
33554;BME280;19885;42.208;24.952;2023-06-01T08:26:16;99985.50;;;23.21;78.57
33554;BME280;19885;42.208;24.952;2023-06-01T08:28:42;99981.41;;;23.13;78.24
33554;BME280;19885;42.208;24.952;2023-06-01T08:31:08;99984.06;;;23.34;78.08
33554;BME280;19885;42.208;24.952;2023-06-01T08:33:33;99980.03;;;23.65;79.90
33554;BME280;19885;42.208;24.952;2023-06-01T08:35:58;99978.59;;;23.76;73.95
33554;BME280;19885;42.208;24.952;2023-06-01T08:38:24;99982.13;;;23.38;72.90
33554;BME280;19885;42.208;24.952;2023-06-01T08:40:57;99971.66;;;23.74;79.51
33554;BME280;19885;42.208;24.952;2023-06-01T08:43:24;99974.50;;;24.08;75.11
33554;BME280;19885;42.208;24.952;2023-06-01T08:45:53;99972.16;;;24.21;76.48
33554;BME280;19885;42.208;24.952;2023-06-01T08:48:20;99971.84;;;24.27;76.02
33554;BME280;19885;42.208;24.952;2023-06-01T08:50:47;99961.53;;;24.38;74.67
33554;BME280;19885;42.208;24.952;2023-06-01T08:53:13;99963.28;;;24.39;75.21
33554;BME280;19885;42.208;24.952;2023-06-01T08:55:39;99956.63;;;24.47;76.51
33554;BME280;19885;42.208;24.952;2023-06-01T08:58:04;99959.03;;;24.70;76.38
33554;BME280;19885;42.208;24.952;2023-06-01T09:00:30;99952.75;;;24.71;73.32
33554;BME280;19885;42.208;24.952;2023-06-01T09:02:57;99945.66;;;24.53;71.86
33554;BME280;19885;42.208;24.952;2023-06-01T09:05:26;99946.38;;;24.93;74.43
33554;BME280;19885;42.208;24.952;2023-06-01T09:07:51;99937.22;;;24.98;64.86
33554;BME280;19885;42.208;24.952;2023-06-01T09:10:22;99947.34;;;25.09;64.34
33554;BME280;19885;42.208;24.952;2023-06-01T09:12:51;99941.28;;;25.22;62.29
33554;BME280;19885;42.208;24.952;2023-06-01T09:15:19;99941.31;;;25.05;64.41
33554;BME280;19885;42.208;24.952;2023-06-01T09:17:47;99935.94;;;25.22;63.48
33554;BME280;19885;42.208;24.952;2023-06-01T09:20:12;99934.53;;;25.32;67.47
33554;BME280;19885;42.208;24.952;2023-06-01T09:22:39;99935.66;;;25.45;67.15
33554;BME280;19885;42.208;24.952;2023-06-01T09:25:05;99935.13;;;25.37;65.66
33554;BME280;19885;42.208;24.952;2023-06-01T09:27:41;99931.09;;;25.47;66.33
33554;BME280;19885;42.208;24.952;2023-06-01T09:30:07;99928.03;;;25.55;64.91
33554;BME280;19885;42.208;24.952;2023-06-01T09:32:33;99924.16;;;25.61;56.65
33554;BME280;19885;42.208;24.952;2023-06-01T09:34:58;99920.09;;;25.69;58.62
33554;BME280;19885;42.208;24.952;2023-06-01T09:37:26;99925.50;;;25.85;57.11
33554;BME280;19885;42.208;24.952;2023-06-01T09:39:52;99923.59;;;25.87;50.60
33554;BME280;19885;42.208;24.952;2023-06-01T09:42:17;99923.75;;;25.84;46.76
33554;BME280;19885;42.208;24.952;2023-06-01T09:44:42;99919.38;;;25.83;51.04
33554;BME280;19885;42.208;24.952;2023-06-01T09:47:11;99922.06;;;25.98;52.57
33554;BME280;19885;42.208;24.952;2023-06-01T09:49:41;99919.47;;;25.97;53.08
33554;BME280;19885;42.208;24.952;2023-06-01T09:52:08;99920.94;;;26.02;52.17
33554;BME280;19885;42.208;24.952;2023-06-01T09:57:05;99915.13;;;26.27;55.46
33554;BME280;19885;42.208;24.952;2023-06-01T09:59:37;99910.19;;;26.19;48.09
33554;BME280;19885;42.208;24.952;2023-06-01T10:02:03;99909.38;;;26.19;53.66
33554;BME280;19885;42.208;24.952;2023-06-01T10:04:29;99913.06;;;26.16;46.46
33554;BME280;19885;42.208;24.952;2023-06-01T10:06:55;99912.19;;;26.32;52.08
33554;BME280;19885;42.208;24.952;2023-06-01T10:09:21;99913.13;;;26.31;51.92
33554;BME280;19885;42.208;24.952;2023-06-01T10:11:48;99912.94;;;26.49;53.23
33554;BME280;19885;42.208;24.952;2023-06-01T10:14:17;99895.00;;;26.51;53.11
33554;BME280;19885;42.208;24.952;2023-06-01T10:16:43;99901.91;;;26.55;51.18
33554;BME280;19885;42.208;24.952;2023-06-01T10:19:11;99896.84;;;26.65;48.93
33554;BME280;19885;42.208;24.952;2023-06-01T10:21:37;99891.78;;;26.76;54.28
33554;BME280;19885;42.208;24.952;2023-06-01T10:24:05;99894.44;;;26.92;53.73
33554;BME280;19885;42.208;24.952;2023-06-01T10:26:30;99893.66;;;27.04;55.17
33554;BME280;19885;42.208;24.952;2023-06-01T10:28:58;99884.13;;;27.14;53.92
33554;BME280;19885;42.208;24.952;2023-06-01T10:31:35;99890.59;;;26.96;49.22
33554;BME280;19885;42.208;24.952;2023-06-01T10:34:04;99879.53;;;27.02;55.29
33554;BME280;19885;42.208;24.952;2023-06-01T10:41:52;99872.78;;;27.24;53.71
33554;BME280;19885;42.208;24.952;2023-06-01T10:45:02;99864.50;;;27.43;50.71
33554;BME280;19885;42.208;24.952;2023-06-01T10:47:03;99861.59;;;27.18;46.36
33554;BME280;19885;42.208;24.952;2023-06-01T11:07:58;99833.66;;;27.78;49.06
33554;BME280;19885;42.208;24.952;2023-06-01T11:13:16;99835.78;;;27.73;47.85
33554;BME280;19885;42.208;24.952;2023-06-01T11:21:28;99817.72;;;28.03;47.15
33554;BME280;19885;42.208;24.952;2023-06-01T11:23:52;99823.22;;;28.02;45.23
33554;BME280;19885;42.208;24.952;2023-06-01T11:26:24;99815.63;;;28.08;47.07
33554;BME280;19885;42.208;24.952;2023-06-01T11:29:02;99800.72;;;27.90;42.42
33554;BME280;19885;42.208;24.952;2023-06-01T11:31:27;99806.06;;;27.90;43.62
33554;BME280;19885;42.208;24.952;2023-06-01T11:33:58;99795.91;;;27.95;49.09
33554;BME280;19885;42.208;24.952;2023-06-01T11:36:24;99790.75;;;28.06;45.45
33554;BME280;19885;42.208;24.952;2023-06-01T11:38:51;99785.50;;;28.05;45.29
33554;BME280;19885;42.208;24.952;2023-06-01T11:41:18;99778.03;;;27.96;45.98
33554;BME280;19885;42.208;24.952;2023-06-01T11:43:53;99776.53;;;28.18;48.08
33554;BME280;19885;42.208;24.952;2023-06-01T11:46:21;99773.22;;;28.27;43.67
33554;BME280;19885;42.208;24.952;2023-06-01T11:48:59;99764.88;;;28.45;48.24
33554;BME280;19885;42.208;24.952;2023-06-01T11:51:33;99766.19;;;28.39;44.77
33554;BME280;19885;42.208;24.952;2023-06-01T11:54:02;99754.97;;;28.20;44.64
33554;BME280;19885;42.208;24.952;2023-06-01T11:56:31;99749.50;;;28.21;47.60
33554;BME280;19885;42.208;24.952;2023-06-01T11:58:57;99737.50;;;28.14;41.23
33554;BME280;19885;42.208;24.952;2023-06-01T12:01:23;99745.00;;;27.95;46.02
33554;BME280;19885;42.208;24.952;2023-06-01T12:03:50;99740.56;;;28.08;45.09
33554;BME280;19885;42.208;24.952;2023-06-01T12:06:19;99734.28;;;28.22;44.18
33554;BME280;19885;42.208;24.952;2023-06-01T12:08:44;99729.78;;;28.22;43.89
33554;BME280;19885;42.208;24.952;2023-06-01T12:11:10;99728.16;;;28.20;46.84
33554;BME280;19885;42.208;24.952;2023-06-01T12:13:37;99724.91;;;28.15;43.69
33554;BME280;19885;42.208;24.952;2023-06-01T12:16:05;99730.09;;;28.31;47.69
33554;BME280;19885;42.208;24.952;2023-06-01T12:18:30;99720.22;;;28.18;44.58
33554;BME280;19885;42.208;24.952;2023-06-01T12:20:55;99713.38;;;28.14;46.26
33554;BME280;19885;42.208;24.952;2023-06-01T12:23:21;99711.78;;;28.37;47.36
33554;BME280;19885;42.208;24.952;2023-06-01T12:25:53;99710.94;;;28.37;44.48
33554;BME280;19885;42.208;24.952;2023-06-01T12:28:22;99707.69;;;28.44;45.52
33554;BME280;19885;42.208;24.952;2023-06-01T12:30:48;99697.09;;;28.43;45.05
33554;BME280;19885;42.208;24.952;2023-06-01T12:33:33;99711.13;;;28.34;45.55
33554;BME280;19885;42.208;24.952;2023-06-01T12:35:59;99706.28;;;28.26;46.26
33554;BME280;19885;42.208;24.952;2023-06-01T12:38:24;99700.91;;;28.26;45.36
33554;BME280;19885;42.208;24.952;2023-06-01T12:41:09;99704.38;;;28.41;45.50
33554;BME280;19885;42.208;24.952;2023-06-01T12:43:35;99707.50;;;28.47;47.49
33554;BME280;19885;42.208;24.952;2023-06-01T12:46:01;99704.88;;;28.60;48.07
33554;BME280;19885;42.208;24.952;2023-06-01T12:48:33;99699.03;;;28.41;43.87
33554;BME280;19885;42.208;24.952;2023-06-01T12:50:59;99701.91;;;28.38;44.30
33554;BME280;19885;42.208;24.952;2023-06-01T12:53:25;99700.72;;;28.16;45.24
33554;BME280;19885;42.208;24.952;2023-06-01T12:55:51;99698.34;;;28.12;44.28
33554;BME280;19885;42.208;24.952;2023-06-01T12:58:16;99695.88;;;27.82;44.32
33554;BME280;19885;42.208;24.952;2023-06-01T13:00:41;99688.13;;;27.78;44.63
33554;BME280;19885;42.208;24.952;2023-06-01T13:03:07;99695.97;;;28.07;49.72
33554;BME280;19885;42.208;24.952;2023-06-01T13:05:33;99698.81;;;28.44;44.94
33554;BME280;19885;42.208;24.952;2023-06-01T13:07:58;99697.72;;;28.34;46.27
33554;BME280;19885;42.208;24.952;2023-06-01T13:10:25;99698.72;;;28.33;46.93
33554;BME280;19885;42.208;24.952;2023-06-01T13:12:50;99703.75;;;28.50;46.03
33554;BME280;19885;42.208;24.952;2023-06-01T13:15:15;99708.00;;;28.40;45.79
33554;BME280;19885;42.208;24.952;2023-06-01T13:17:40;99696.66;;;28.36;46.39
33554;BME280;19885;42.208;24.952;2023-06-01T13:20:06;99695.13;;;28.19;44.87
33554;BME280;19885;42.208;24.952;2023-06-01T13:22:32;99693.47;;;28.44;46.43
33554;BME280;19885;42.208;24.952;2023-06-01T13:24:59;99687.31;;;28.29;45.48
33554;BME280;19885;42.208;24.952;2023-06-01T13:27:25;99681.19;;;28.27;47.32
33554;BME280;19885;42.208;24.952;2023-06-01T13:29:50;99682.84;;;28.55;44.75